Pilote Boat 112 — FAB8786 — position and weather

sailwx.info

Track history (hours):
 
Tides and Currents Weather Stations Pressure Air Temp Water Temp Dewpoint Dewpoint Depression Visibility Wind Speed Wind Dir Waves Ship Positions

Pilote Boat 112

Last reported at 2018-Feb-17 11:01 UTC. Time now 2018-Feb-18 05:26 UTC.
Position N 43°24' E 004°59'.

Length 12 m.

Type: Pilot. MMSI: 227247960.

Date/timePositionNaut miles runAvg speedWind from/ knotsBaromVisibWave heightAir tempDewpointWater temp
2018-Feb-17 11:01N 43°24' E 004°59'0 0.3
2018-Feb-17 10:30N 43°24' E 004°59'0 0.7
2018-Feb-17 10:00N 43°24' E 004°59'0 0.0
2018-Feb-16 14:43N 43°24' E 004°59'0 0.0
2018-Feb-16 12:44N 43°24' E 004°59'2 9.8
2018-Feb-16 12:29N 43°23' E 004°56'3 5.9
2018-Feb-16 12:01N 43°22' E 004°59'2 3.6
2018-Feb-16 11:30N 43°24' E 004°59'0 0.0
2018-Feb-16 11:00N 43°24' E 004°59'1 2.5
2018-Feb-16 10:30N 43°23' E 004°57'0 0.4
2018-Feb-16 10:00N 43°23' E 004°58'2 3.4
2018-Feb-16 09:30N 43°24' E 004°60'2 5.0
2018-Feb-16 09:00N 43°24' E 004°56'2 4.0
2018-Feb-16 08:30N 43°24' E 004°59'3 5.5
2018-Feb-16 08:00N 43°24' E 004°55'3 0.7
2018-Feb-16 04:20N 43°24' E 004°59'2 5.5
2018-Feb-16 04:00N 43°24' E 004°57'2 3.1
2018-Feb-16 03:30N 43°23' E 004°57'1 1.8
2018-Feb-16 03:00N 43°22' E 004°58'2 0.3
2018-Feb-15 19:33N 43°24' E 004°59'111.3
2018-Feb-15 19:30N 43°24' E 004°58'1 2.3
2018-Feb-15 19:00N 43°23' E 004°58'1 1.1
2018-Feb-15 17:52N 43°24' E 004°59'2 6.4
2018-Feb-15 17:30N 43°22' E 004°57'2 4.7
2018-Feb-15 17:00N 43°24' E 004°59'0 0.2
2018-Feb-15 16:09N 43°24' E 004°59'1 7.7
2018-Feb-15 16:00N 43°23' E 004°58'2 3.3
2018-Feb-15 15:30N 43°22' E 004°59'2 3.9
2018-Feb-15 15:01N 43°24' E 004°59'1 2.5
2018-Feb-15 14:30N 43°24' E 004°57'2 3.9
2018-Feb-15 14:00N 43°23' E 004°59'1 0.8
2018-Feb-15 12:21N 43°24' E 004°59'0 0.0
2018-Feb-15 12:00N 43°24' E 004°59'0 0.0
2018-Feb-15 10:17N 43°24' E 004°59'3 8.7
2018-Feb-15 10:00N 43°24' E 004°55'4 7.9
2018-Feb-15 09:30N 43°21' E 004°58'3 1.6
2018-Feb-15 07:43N 43°24' E 004°59'0 1.3
2018-Feb-15 07:30N 43°24' E 004°59'0 0.6
2018-Feb-15 07:00N 43°24' E 004°59'0 0.0
2018-Feb-15 03:14N 43°24' E 004°59'2 6.9
2018-Feb-15 02:58N 43°23' E 004°57'1 2.6
2018-Feb-15 02:30N 43°24' E 004°58'1 1.0
2018-Feb-15 01:48N 43°24' E 004°59'2 5.6
2018-Feb-15 01:30N 43°24' E 004°57'2 0.4
2018-Feb-14 21:43N 43°24' E 004°59'211.2
2018-Feb-14 21:30N 43°23' E 004°56'2 0.7
2018-Feb-14 18:12N 43°24' E 004°59'211.5
2018-Feb-14 18:00N 43°22' E 004°57'2 3.7
2018-Feb-14 17:30N 43°24' E 004°57'2 3.5
2018-Feb-14 17:00N 43°24' E 004°60'1 0.4
2018-Feb-14 15:51N 43°24' E 004°59'1 2.3
2018-Feb-14 15:30N 43°24' E 004°58'0 0.7
2018-Feb-14 15:00N 43°24' E 004°58'1 0.5
2018-Feb-14 13:50N 43°24' E 004°59'412.2
2018-Feb-14 13:30N 43°20' E 004°59'3 2.7
2018-Feb-14 12:25N 43°23' E 004°59'1 2.7
2018-Feb-14 12:00N 43°24' E 004°59'0 0.1
2018-Feb-14 11:30N 43°24' E 004°59'0 0.3
2018-Feb-14 11:00N 43°24' E 004°59'0 0.1
2018-Feb-14 09:00N 43°24' E 004°59'2 3.4
2018-Feb-14 08:30N 43°25' E 004°57'2 3.9
2018-Feb-14 08:00N 43°24' E 004°59'0 0.5
2018-Feb-14 07:30N 43°24' E 004°59'0 0.0
2018-Feb-14 05:27N 43°24' E 004°59'0 0.0
2018-Feb-14 05:00N 43°24' E 004°59'0 0.0
2018-Feb-14 03:57N 43°24' E 004°59'3 7.5
2018-Feb-14 03:30N 43°20' E 004°59'3 2.1
2018-Feb-14 01:52N 43°24' E 004°59'0 0.1
2018-Feb-14 01:08N 43°24' E 004°59'211.7
2018-Feb-14 00:57N 43°23' E 004°57'0 0.7
2018-Feb-14 00:30N 43°23' E 004°57'2 1.9
2018-Feb-13 23:36N 43°24' E 004°59'113.0
2018-Feb-13 23:30N 43°23' E 004°58'0 0.4
2018-Feb-13 23:00N 43°23' E 004°57'0 0.8
2018-Feb-13 22:30N 43°23' E 004°57'1 2.5
2018-Feb-13 22:00N 43°23' E 004°59'1 1.9
2018-Feb-13 21:30N 43°22' E 004°59'2 4.0
2018-Feb-13 21:00N 43°24' E 004°59'2 3.3
2018-Feb-13 20:30N 43°22' E 004°59'2 1.6
2018-Feb-13 19:30N 43°24' E 004°59'0 0.0
2018-Feb-13 16:27N 43°24' E 004°59'1 2.4
2018-Feb-13 16:00N 43°23' E 004°58'1 1.2
2018-Feb-13 15:05N 43°24' E 004°59'113.9
2018-Feb-13 15:00N 43°23' E 004°58'1 1.4
2018-Feb-13 14:13N 43°24' E 004°59'2 8.1
2018-Feb-13 14:00N 43°24' E 004°57'2 0.9
2018-Feb-13 12:07N 43°24' E 004°59'1 6.8
2018-Feb-13 12:00N 43°23' E 004°59'1 0.8
2018-Feb-13 11:02N 43°24' E 004°59'0 8.5
2018-Feb-13 11:00N 43°24' E 004°59'3 5.0
2018-Feb-13 10:29N 43°21' E 004°59'2 2.3
2018-Feb-13 09:24N 43°24' E 004°59'0 0.0
2018-Feb-13 08:41N 43°24' E 004°59'0 0.0
2018-Feb-13 07:15N 43°24' E 004°59'0 0.5
2018-Feb-13 07:00N 43°24' E 004°59'2 3.7
2018-Feb-13 06:30N 43°24' E 004°57'2 1.8
2018-Feb-13 05:27N 43°24' E 004°59'0 0.1
2018-Feb-13 04:36N 43°24' E 004°59'113.2
2018-Feb-13 04:31N 43°23' E 004°58'1 0.8
2018-Feb-13 03:10N 43°24' E 004°59'0 0.0
2018-Feb-13 02:09N 43°24' E 004°59'0 3.1
2018-Feb-13 02:00N 43°24' E 004°60'0 0.6
2018-Feb-13 01:13N 43°24' E 004°59'210.0
2018-Feb-13 01:00N 43°24' E 004°56'2 0.4
2018-Feb-12 19:43N 43°24' E 004°59'2 9.2
2018-Feb-12 19:28N 43°24' E 004°56'1 2.0
2018-Feb-12 19:00N 43°25' E 004°56'2 1.3
2018-Feb-12 17:20N 43°24' E 004°59'1 3.3
2018-Feb-12 17:01N 43°24' E 004°57'1 2.0
2018-Feb-12 16:30N 43°24' E 004°59'1 1.2
2018-Feb-12 16:00N 43°23' E 004°58'1 0.3
2018-Feb-12 13:11N 43°24' E 004°59'315.1
2018-Feb-12 13:00N 43°25' E 004°56'1 2.5
2018-Feb-12 12:30N 43°24' E 004°57'1 2.9
2018-Feb-12 11:59N 43°24' E 004°59'0 0.0
2018-Feb-12 11:15N 43°24' E 004°59'2 7.6
2018-Feb-12 11:00N 43°25' E 004°57'2 2.4
2018-Feb-12 10:12N 43°24' E 004°59'1 7.1
2018-Feb-12 10:00N 43°23' E 004°57'1 2.8
2018-Feb-12 09:30N 43°24' E 004°59'0 0.0
2018-Feb-12 06:32N 43°24' E 004°59'0 3.4
2018-Feb-12 06:31N 43°24' E 004°59'4 7.2
2018-Feb-12 06:01N 43°20' E 004°59'4 2.7
2018-Feb-12 04:42N 43°24' E 004°59'0 0.7
2018-Feb-12 04:30N 43°24' E 004°59'0 0.4
2018-Feb-12 03:29N 43°24' E 004°59'0 0.8
2018-Feb-12 03:00N 43°24' E 004°59'1 2.3
2018-Feb-12 02:31N 43°24' E 004°57'2 3.5
2018-Feb-12 02:00N 43°22' E 004°59'2 1.2
2018-Feb-12 00:40N 43°24' E 004°59'316.6
2018-Feb-12 00:30N 43°24' E 004°55'3 0.7
2018-Feb-11 20:35N 43°24' E 004°59'113.4
2018-Feb-11 20:30N 43°23' E 004°58'1 0.3
2018-Feb-11 17:10N 43°24' E 004°59'2 9.9
2018-Feb-11 17:00N 43°23' E 004°57'1 2.9
2018-Feb-11 16:30N 43°24' E 004°57'1 1.7
2018-Feb-11 16:00N 43°24' E 004°56'4 8.3
2018-Feb-11 15:30N 43°21' E 004°59'3 2.9
2018-Feb-11 14:31N 43°24' E 004°59'0 5.6
2018-Feb-11 14:30N 43°24' E 004°59'0 0.1
2018-Feb-11 13:37N 43°24' E 004°59'216.6
2018-Feb-11 13:30N 43°22' E 004°59'2 3.4
2018-Feb-11 13:00N 43°24' E 004°59'0 0.0
2018-Feb-11 11:55N 43°24' E 004°59'2 4.3
2018-Feb-11 11:30N 43°24' E 004°56'2 4.0
2018-Feb-11 11:00N 43°24' E 004°59'1 2.7
2018-Feb-11 10:30N 43°23' E 004°58'2 3.0
2018-Feb-11 10:00N 43°24' E 004°59'2 4.1
2018-Feb-11 09:30N 43°23' E 004°56'2 2.4
2018-Feb-11 08:39N 43°24' E 004°59'0 1.9
2018-Feb-11 08:30N 43°24' E 004°59'0 0.5
2018-Feb-11 08:01N 43°24' E 004°59'0 0.0
2018-Feb-11 07:29N 43°24' E 004°59'0 0.0
2018-Feb-11 06:11N 43°24' E 004°59'2 9.2
2018-Feb-11 06:01N 43°23' E 004°57'2 0.2
2018-Feb-10 23:21N 43°24' E 004°59'1 2.2
2018-Feb-10 23:00N 43°23' E 004°59'1 0.2
2018-Feb-10 18:27N 43°24' E 004°59'0 0.0
2018-Feb-10 14:59N 43°24' E 004°59'2 4.5
2018-Feb-10 14:30N 43°22' E 004°59'2 0.8
2018-Feb-10 11:52N 43°24' E 004°59'0 0.0
2018-Feb-10 09:33N 43°24' E 004°59'0 8.6
2018-Feb-10 09:30N 43°24' E 004°59'0 0.7
2018-Feb-10 09:00N 43°24' E 004°59'0 0.0
2018-Feb-10 08:30N 43°24' E 004°59'0 0.0
2018-Feb-10 01:36N 43°24' E 004°59'0 5.1
2018-Feb-10 01:30N 43°24' E 004°60'2 4.0
2018-Feb-10 01:00N 43°24' E 004°57'4 7.3
2018-Feb-10 00:30N 43°20' E 004°59'4 7.3
2018-Feb-10 00:00N 43°24' E 004°59'0 0.5
2018-Feb-09 23:26N 43°24' E 004°59'0 0.1
2018-Feb-09 23:00N 43°24' E 004°59'0 0.0
2018-Feb-09 22:45N 43°24' E 004°59'2 0.3
2018-Feb-09 16:30N 43°22' E 004°59'2 0.3
2018-Feb-09 09:00N 43°20' E 004°59'4 0.6
2018-Feb-09 03:00N 43°24' E 004°59'2 0.3
2018-Feb-08 18:00N 43°22' E 004°58'2 4.4
2018-Feb-08 17:30N 43°24' E 004°58'1 0.1
2018-Feb-08 09:00N 43°24' E 004°59'0 0.0
2018-Feb-08 00:24N 43°24' E 004°59'4 9.6
2018-Feb-08 00:00N 43°20' E 004°57'1 2.6
2018-Feb-07 23:30N 43°22' E 004°57'3 5.4
2018-Feb-07 22:55N 43°24' E 004°55'2 3.6
2018-Feb-07 22:28N 43°23' E 004°57'  
Track history (hours):
 
Tides and Currents Weather Stations Pressure Air Temp Water Temp Dewpoint Dewpoint Depression Visibility Wind Speed Wind Dir Waves Ship Positions

Pilote Boat 112

Last reported at 2018-Feb-17 11:01 UTC. Time now 2018-Feb-18 05:26 UTC.
Position N 43°24' E 004°59'.

Length 12 m.

Type: Pilot. MMSI: 227247960.

Date/timePositionNaut miles runAvg speedWind from/ knotsBaromVisibWave heightAir tempDewpointWater temp
2018-Feb-17 11:01N 43°24' E 004°59'0 0.3
2018-Feb-17 10:30N 43°24' E 004°59'0 0.7
2018-Feb-17 10:00N 43°24' E 004°59'0 0.0
2018-Feb-16 14:43N 43°24' E 004°59'0 0.0
2018-Feb-16 12:44N 43°24' E 004°59'2 9.8
2018-Feb-16 12:29N 43°23' E 004°56'3 5.9
2018-Feb-16 12:01N 43°22' E 004°59'2 3.6
2018-Feb-16 11:30N 43°24' E 004°59'0 0.0
2018-Feb-16 11:00N 43°24' E 004°59'1 2.5
2018-Feb-16 10:30N 43°23' E 004°57'0 0.4
2018-Feb-16 10:00N 43°23' E 004°58'2 3.4
2018-Feb-16 09:30N 43°24' E 004°60'2 5.0
2018-Feb-16 09:00N 43°24' E 004°56'2 4.0
2018-Feb-16 08:30N 43°24' E 004°59'3 5.5
2018-Feb-16 08:00N 43°24' E 004°55'3 0.7
2018-Feb-16 04:20N 43°24' E 004°59'2 5.5
2018-Feb-16 04:00N 43°24' E 004°57'2 3.1
2018-Feb-16 03:30N 43°23' E 004°57'1 1.8
2018-Feb-16 03:00N 43°22' E 004°58'2 0.3
2018-Feb-15 19:33N 43°24' E 004°59'111.3
2018-Feb-15 19:30N 43°24' E 004°58'1 2.3
2018-Feb-15 19:00N 43°23' E 004°58'1 1.1
2018-Feb-15 17:52N 43°24' E 004°59'2 6.4
2018-Feb-15 17:30N 43°22' E 004°57'2 4.7
2018-Feb-15 17:00N 43°24' E 004°59'0 0.2
2018-Feb-15 16:09N 43°24' E 004°59'1 7.7
2018-Feb-15 16:00N 43°23' E 004°58'2 3.3
2018-Feb-15 15:30N 43°22' E 004°59'2 3.9
2018-Feb-15 15:01N 43°24' E 004°59'1 2.5
2018-Feb-15 14:30N 43°24' E 004°57'2 3.9
2018-Feb-15 14:00N 43°23' E 004°59'1 0.8
2018-Feb-15 12:21N 43°24' E 004°59'0 0.0
2018-Feb-15 12:00N 43°24' E 004°59'0 0.0
2018-Feb-15 10:17N 43°24' E 004°59'3 8.7
2018-Feb-15 10:00N 43°24' E 004°55'4 7.9
2018-Feb-15 09:30N 43°21' E 004°58'3 1.6
2018-Feb-15 07:43N 43°24' E 004°59'0 1.3
2018-Feb-15 07:30N 43°24' E 004°59'0 0.6
2018-Feb-15 07:00N 43°24' E 004°59'0 0.0
2018-Feb-15 03:14N 43°24' E 004°59'2 6.9
2018-Feb-15 02:58N 43°23' E 004°57'1 2.6
2018-Feb-15 02:30N 43°24' E 004°58'1 1.0
2018-Feb-15 01:48N 43°24' E 004°59'2 5.6
2018-Feb-15 01:30N 43°24' E 004°57'2 0.4
2018-Feb-14 21:43N 43°24' E 004°59'211.2
2018-Feb-14 21:30N 43°23' E 004°56'2 0.7
2018-Feb-14 18:12N 43°24' E 004°59'211.5
2018-Feb-14 18:00N 43°22' E 004°57'2 3.7
2018-Feb-14 17:30N 43°24' E 004°57'2 3.5
2018-Feb-14 17:00N 43°24' E 004°60'1 0.4
2018-Feb-14 15:51N 43°24' E 004°59'1 2.3
2018-Feb-14 15:30N 43°24' E 004°58'0 0.7
2018-Feb-14 15:00N 43°24' E 004°58'1 0.5
2018-Feb-14 13:50N 43°24' E 004°59'412.2
2018-Feb-14 13:30N 43°20' E 004°59'3 2.7
2018-Feb-14 12:25N 43°23' E 004°59'1 2.7
2018-Feb-14 12:00N 43°24' E 004°59'0 0.1
2018-Feb-14 11:30N 43°24' E 004°59'0 0.3
2018-Feb-14 11:00N 43°24' E 004°59'0 0.1
2018-Feb-14 09:00N 43°24' E 004°59'2 3.4
2018-Feb-14 08:30N 43°25' E 004°57'2 3.9
2018-Feb-14 08:00N 43°24' E 004°59'0 0.5
2018-Feb-14 07:30N 43°24' E 004°59'0 0.0
2018-Feb-14 05:27N 43°24' E 004°59'0 0.0
2018-Feb-14 05:00N 43°24' E 004°59'0 0.0
2018-Feb-14 03:57N 43°24' E 004°59'3 7.5
2018-Feb-14 03:30N 43°20' E 004°59'3 2.1
2018-Feb-14 01:52N 43°24' E 004°59'0 0.1
2018-Feb-14 01:08N 43°24' E 004°59'211.7
2018-Feb-14 00:57N 43°23' E 004°57'0 0.7
2018-Feb-14 00:30N 43°23' E 004°57'2 1.9
2018-Feb-13 23:36N 43°24' E 004°59'113.0
2018-Feb-13 23:30N 43°23' E 004°58'0 0.4
2018-Feb-13 23:00N 43°23' E 004°57'0 0.8
2018-Feb-13 22:30N 43°23' E 004°57'1 2.5
2018-Feb-13 22:00N 43°23' E 004°59'1 1.9
2018-Feb-13 21:30N 43°22' E 004°59'2 4.0
2018-Feb-13 21:00N 43°24' E 004°59'2 3.3
2018-Feb-13 20:30N 43°22' E 004°59'2 1.6
2018-Feb-13 19:30N 43°24' E 004°59'0 0.0
2018-Feb-13 16:27N 43°24' E 004°59'1 2.4
2018-Feb-13 16:00N 43°23' E 004°58'1 1.2
2018-Feb-13 15:05N 43°24' E 004°59'113.9
2018-Feb-13 15:00N 43°23' E 004°58'1 1.4
2018-Feb-13 14:13N 43°24' E 004°59'2 8.1
2018-Feb-13 14:00N 43°24' E 004°57'2 0.9
2018-Feb-13 12:07N 43°24' E 004°59'1 6.8
2018-Feb-13 12:00N 43°23' E 004°59'1 0.8
2018-Feb-13 11:02N 43°24' E 004°59'0 8.5
2018-Feb-13 11:00N 43°24' E 004°59'3 5.0
2018-Feb-13 10:29N 43°21' E 004°59'2 2.3
2018-Feb-13 09:24N 43°24' E 004°59'0 0.0
2018-Feb-13 08:41N 43°24' E 004°59'0 0.0
2018-Feb-13 07:15N 43°24' E 004°59'0 0.5
2018-Feb-13 07:00N 43°24' E 004°59'2 3.7
2018-Feb-13 06:30N 43°24' E 004°57'2 1.8
2018-Feb-13 05:27N 43°24' E 004°59'0 0.1
2018-Feb-13 04:36N 43°24' E 004°59'113.2
2018-Feb-13 04:31N 43°23' E 004°58'1 0.8
2018-Feb-13 03:10N 43°24' E 004°59'0 0.0
2018-Feb-13 02:09N 43°24' E 004°59'0 3.1
2018-Feb-13 02:00N 43°24' E 004°60'0 0.6
2018-Feb-13 01:13N 43°24' E 004°59'210.0
2018-Feb-13 01:00N 43°24' E 004°56'2 0.4
2018-Feb-12 19:43N 43°24' E 004°59'2 9.2
2018-Feb-12 19:28N 43°24' E 004°56'1 2.0
2018-Feb-12 19:00N 43°25' E 004°56'2 1.3
2018-Feb-12 17:20N 43°24' E 004°59'1 3.3
2018-Feb-12 17:01N 43°24' E 004°57'1 2.0
2018-Feb-12 16:30N 43°24' E 004°59'1 1.2
2018-Feb-12 16:00N 43°23' E 004°58'1 0.3
2018-Feb-12 13:11N 43°24' E 004°59'315.1
2018-Feb-12 13:00N 43°25' E 004°56'1 2.5
2018-Feb-12 12:30N 43°24' E 004°57'1 2.9
2018-Feb-12 11:59N 43°24' E 004°59'0 0.0
2018-Feb-12 11:15N 43°24' E 004°59'2 7.6
2018-Feb-12 11:00N 43°25' E 004°57'2 2.4
2018-Feb-12 10:12N 43°24' E 004°59'1 7.1
2018-Feb-12 10:00N 43°23' E 004°57'1 2.8
2018-Feb-12 09:30N 43°24' E 004°59'0 0.0
2018-Feb-12 06:32N 43°24' E 004°59'0 3.4
2018-Feb-12 06:31N 43°24' E 004°59'4 7.2
2018-Feb-12 06:01N 43°20' E 004°59'4 2.7
2018-Feb-12 04:42N 43°24' E 004°59'0 0.7
2018-Feb-12 04:30N 43°24' E 004°59'0 0.4
2018-Feb-12 03:29N 43°24' E 004°59'0 0.8
2018-Feb-12 03:00N 43°24' E 004°59'1 2.3
2018-Feb-12 02:31N 43°24' E 004°57'2 3.5
2018-Feb-12 02:00N 43°22' E 004°59'2 1.2
2018-Feb-12 00:40N 43°24' E 004°59'316.6
2018-Feb-12 00:30N 43°24' E 004°55'3 0.7
2018-Feb-11 20:35N 43°24' E 004°59'113.4
2018-Feb-11 20:30N 43°23' E 004°58'1 0.3
2018-Feb-11 17:10N 43°24' E 004°59'2 9.9
2018-Feb-11 17:00N 43°23' E 004°57'1 2.9
2018-Feb-11 16:30N 43°24' E 004°57'1 1.7
2018-Feb-11 16:00N 43°24' E 004°56'4 8.3
2018-Feb-11 15:30N 43°21' E 004°59'3 2.9
2018-Feb-11 14:31N 43°24' E 004°59'0 5.6
2018-Feb-11 14:30N 43°24' E 004°59'0 0.1
2018-Feb-11 13:37N 43°24' E 004°59'216.6
2018-Feb-11 13:30N 43°22' E 004°59'2 3.4
2018-Feb-11 13:00N 43°24' E 004°59'0 0.0
2018-Feb-11 11:55N 43°24' E 004°59'2 4.3
2018-Feb-11 11:30N 43°24' E 004°56'2 4.0
2018-Feb-11 11:00N 43°24' E 004°59'1 2.7
2018-Feb-11 10:30N 43°23' E 004°58'2 3.0
2018-Feb-11 10:00N 43°24' E 004°59'2 4.1
2018-Feb-11 09:30N 43°23' E 004°56'2 2.4
2018-Feb-11 08:39N 43°24' E 004°59'0 1.9
2018-Feb-11 08:30N 43°24' E 004°59'0 0.5
2018-Feb-11 08:01N 43°24' E 004°59'0 0.0
2018-Feb-11 07:29N 43°24' E 004°59'0 0.0
2018-Feb-11 06:11N 43°24' E 004°59'2 9.2
2018-Feb-11 06:01N 43°23' E 004°57'2 0.2
2018-Feb-10 23:21N 43°24' E 004°59'1 2.2
2018-Feb-10 23:00N 43°23' E 004°59'1 0.2
2018-Feb-10 18:27N 43°24' E 004°59'0 0.0
2018-Feb-10 14:59N 43°24' E 004°59'2 4.5
2018-Feb-10 14:30N 43°22' E 004°59'2 0.8
2018-Feb-10 11:52N 43°24' E 004°59'0 0.0
2018-Feb-10 09:33N 43°24' E 004°59'0 8.6
2018-Feb-10 09:30N 43°24' E 004°59'0 0.7
2018-Feb-10 09:00N 43°24' E 004°59'0 0.0
2018-Feb-10 08:30N 43°24' E 004°59'0 0.0
2018-Feb-10 01:36N 43°24' E 004°59'0 5.1
2018-Feb-10 01:30N 43°24' E 004°60'2 4.0
2018-Feb-10 01:00N 43°24' E 004°57'4 7.3
2018-Feb-10 00:30N 43°20' E 004°59'4 7.3
2018-Feb-10 00:00N 43°24' E 004°59'0 0.5
2018-Feb-09 23:26N 43°24' E 004°59'0 0.1
2018-Feb-09 23:00N 43°24' E 004°59'0 0.0
2018-Feb-09 22:45N 43°24' E 004°59'2 0.3
2018-Feb-09 16:30N 43°22' E 004°59'2 0.3
2018-Feb-09 09:00N 43°20' E 004°59'4 0.6
2018-Feb-09 03:00N 43°24' E 004°59'2 0.3
2018-Feb-08 18:00N 43°22' E 004°58'2 4.4
2018-Feb-08 17:30N 43°24' E 004°58'1 0.1
2018-Feb-08 09:00N 43°24' E 004°59'0 0.0
2018-Feb-08 00:24N 43°24' E 004°59'4 9.6
2018-Feb-08 00:00N 43°20' E 004°57'1 2.6
2018-Feb-07 23:30N 43°22' E 004°57'3 5.4
2018-Feb-07 22:55N 43°24' E 004°55'2 3.6
2018-Feb-07 22:28N 43°23' E 004°57'  

Dump ship's entire track history